This is the latest recevied weather packets stored in our database for station/object AE4BA-13. If no packets are shown the sender has not sent any weather packets the latest 10 day(s).
| Time | Temp. | Humidity | Pressure | Rain* | Wind** | Luminosity | Snow |
|---|---|---|---|---|---|---|---|
| 1788641614 | 30.56° C | 54% | 1004.6 hPa | 0 mm | - | 292 W/m² | - |
| 1788641014 | 31.11° C | 52% | 1004.7 hPa | 0 mm | - | 181 W/m² | - |
| 1788640414 | 31.67° C | 50% | 1004.7 hPa | 0 mm | - | 313 W/m² | - |
| 1788639814 | 32.22° C | 49% | 1004.7 hPa | 0 mm | - | 444 W/m² | - |
| 1788639214 | 31.67° C | 51% | 1004.5 hPa | 0 mm | - | 529 W/m² | - |
| 1788638614 | 31.11° C | 53% | 1004.3 hPa | 0 mm | - | 575 W/m² | - |
| 1788638014 | 30.56° C | 55% | 1004.3 hPa | 0 mm | - | 616 W/m² | - |
| 1788637414 | 31.67° C | 51% | 1004.5 hPa | 0 mm | - | 671 W/m² | - |
| 1788636814 | 31.67° C | 52% | 1004.6 hPa | 0 mm | - | 619 W/m² | - |
| 1788636214 | 31.11° C | 52% | 1004.7 hPa | 0 mm | - | 646 W/m² | - |
| 1788635614 | 30.56° C | 53% | 1004.9 hPa | 0 mm | - | 412 W/m² | - |
| 1788635014 | 30.56° C | 52% | 1005.1 hPa | 0 mm | - | 755 W/m² | - |
| 1788634414 | 30.56° C | 55% | 1005.4 hPa | 0 mm | - | 821 W/m² | - |
| 1788633814 | 31.11° C | 54% | 1005.6 hPa | 0 mm | - | 344 W/m² | - |
| 1788633214 | 30.56° C | 56% | 1005.8 hPa | 0 mm | - | 606 W/m² | - |
| 1788632614 | 30° C | 57% | 1005.9 hPa | 0 mm | - | 692 W/m² | - |
| 1788632014 | 29.44° C | 59% | 1006 hPa | 0 mm | - | 432 W/m² | - |
| 1788631448 | 28.89° C | 60% | 1006 hPa | 0 mm | - | 541 W/m² | - |
| 1788630814 | 29.44° C | 59% | 1006.2 hPa | 0 mm | - | 424 W/m² | - |
| 1788630214 | 30° C | 56% | 1006.3 hPa | 0 mm | - | 347 W/m² | - |
| 1788629614 | 29.44° C | 55% | 1006.2 hPa | 0 mm | - | 606 W/m² | - |
| 1788629014 | 28.89° C | 57% | 1006.3 hPa | 0 mm | - | 460 W/m² | - |
| 1788628414 | 28.89° C | 56% | 1006.2 hPa | 0 mm | - | 267 W/m² | - |
| 1788627814 | 28.33° C | 56% | 1005.9 hPa | 0 mm | - | 263 W/m² | - |
| 1788627214 | 28.89° C | 58% | 1006.2 hPa | 0 mm | - | 448 W/m² | - |
* Rain latest hour (hover to see other rain measurements)
** Current wind speed in m/s (hover to see current wind gust speed)